Time;durP1;ratioP1;P1;durP2;ratioP2;P2;SDS_P1;SDS_P2;PMS_P1;PMS_P2;Temp;Humidity;BMP_temperature;BMP_pressure;BME280_temperature;BME280_humidity;BME280_pressure;Samples;Min_cycle;Max_cycle;Signal;HPM_P1;HPM_P2
2022/12/19 00:01:30;;;;;;;32.70;18.92;;;2.60;99.90;;;;;;4974413;28;93460;-76
2022/12/19 00:04:02;;;;;;;29.13;18.65;;;2.70;99.90;;;;;;4957743;28;95833;-76
2022/12/19 00:06:30;;;;;;;30.27;18.17;;;2.70;99.90;;;;;;4958284;28;92526;-76
2022/12/19 00:08:59;;;;;;;25.08;15.70;;;2.70;99.90;;;;;;4990961;28;93050;-75
2022/12/19 00:11:28;;;;;;;28.08;15.98;;;2.70;99.90;;;;;;4974208;28;93114;-76
2022/12/19 00:13:55;;;;;;;22.40;14.48;;;2.70;99.90;;;;;;4974525;28;93010;-76
2022/12/19 00:16:24;;;;;;;27.58;18.02;;;2.70;99.90;;;;;;4958161;28;92550;-76
2022/12/19 00:18:53;;;;;;;31.40;17.02;;;2.70;99.90;;;;;;4957855;28;92510;-75
2022/12/19 00:21:24;;;;;;;32.45;18.63;;;2.70;99.90;;;;;;4956491;28;98218;-76
2022/12/19 00:23:52;;;;;;;30.23;19.30;;;2.80;99.90;;;;;;4973953;28;96461;-76
2022/12/19 00:26:27;;;;;;;26.00;16.48;;;2.80;99.90;;;;;;4975267;28;93569;-76
2022/12/19 00:28:57;;;;;;;30.13;17.92;;;2.80;99.90;;;;;;4957829;28;92493;-76
2022/12/19 00:31:25;;;;;;;27.70;17.30;;;2.80;99.90;;;;;;4975300;28;93187;-76
2022/12/19 00:33:53;;;;;;;31.15;19.42;;;2.80;99.90;;;;;;4974073;28;93077;-76
2022/12/19 00:36:23;;;;;;;30.20;16.90;;;2.80;99.90;;;;;;4975488;28;92528;-75
2022/12/19 00:38:52;;;;;;;29.88;18.42;;;2.80;99.90;;;;;;4975720;28;91600;-76
2022/12/19 00:41:21;;;;;;;24.45;14.98;;;2.80;99.90;;;;;;4975379;28;93220;-75
2022/12/19 00:43:56;;;;;;;31.42;18.55;;;2.80;99.90;;;;;;4973699;28;95755;-76
2022/12/19 00:46:24;;;;;;;25.15;16.00;;;2.90;99.90;;;;;;4972952;28;94876;-76
2022/12/19 00:48:51;;;;;;;33.30;19.55;;;2.80;99.90;;;;;;4990214;28;92480;-76
2022/12/19 00:51:21;;;;;;;28.83;19.00;;;2.80;99.90;;;;;;4973877;28;93217;-76
2022/12/19 00:53:49;;;;;;;31.08;17.77;;;2.80;99.90;;;;;;4990031;28;96557;-76
2022/12/19 00:56:19;;;;;;;23.55;14.57;;;2.80;99.90;;;;;;4973747;28;92594;-76
2022/12/19 00:58:46;;;;;;;32.40;20.02;;;2.80;99.90;;;;;;4990076;28;92519;-76
2022/12/19 01:01:19;;;;;;;25.98;15.57;;;2.70;99.90;;;;;;4975086;28;93279;-76
2022/12/19 01:03:47;;;;;;;28.67;18.00;;;2.80;99.90;;;;;;4975597;28;93132;-75
2022/12/19 01:06:34;;;;;;;22.02;13.65;;;2.80;99.90;;;;;;4963423;28;92480;-76
2022/12/19 01:09:01;;;;;;;32.63;20.08;;;2.80;99.90;;;;;;4960687;28;92967;-75
2022/12/19 01:14:14;;;;;;;27.33;15.15;;;2.90;99.90;;;;;;4978437;28;95426;-75
2022/12/19 01:16:48;;;;;;;30.05;17.83;;;2.80;99.90;;;;;;4976932;28;92890;-75
2022/12/19 01:19:17;;;;;;;32.97;19.30;;;2.90;99.90;;;;;;4977049;28;92582;-75
2022/12/19 01:21:44;;;;;;;29.98;17.35;;;2.90;99.90;;;;;;4960563;28;94944;-74
2022/12/19 01:24:12;;;;;;;33.88;18.40;;;2.90;99.90;;;;;;4993354;28;92485;-75
2022/12/19 01:26:39;;;;;;;25.02;14.50;;;2.90;99.90;;;;;;4960724;28;92636;-75
2022/12/19 01:29:06;;;;;;;29.20;16.70;;;2.90;99.90;;;;;;4993039;28;91877;-75
2022/12/19 01:31:33;;;;;;;24.73;16.25;;;3.00;99.90;;;;;;4976570;28;95781;-75
2022/12/19 01:34:02;;;;;;;32.90;19.88;;;2.90;99.90;;;;;;4976135;28;96201;-75
2022/12/19 01:36:29;;;;;;;37.55;20.73;;;2.90;99.90;;;;;;4975539;28;94781;-75
2022/12/19 01:38:57;;;;;;;27.73;16.77;;;2.90;99.90;;;;;;4960220;28;92566;-75
2022/12/19 01:41:26;;;;;;;21.00;12.40;;;3.00;99.90;;;;;;4976466;28;94486;-75
2022/12/19 01:44:05;;;;;;;34.78;19.58;;;3.00;99.90;;;;;;4992829;28;95776;-75
2022/12/19 01:46:39;;;;;;;25.52;16.40;;;3.10;99.90;;;;;;4993094;28;92908;-76
2022/12/19 01:49:14;;;;;;;27.17;15.63;;;3.10;99.90;;;;;;4976217;28;92479;-75
2022/12/19 01:51:46;;;;;;;27.20;17.33;;;3.10;99.90;;;;;;4976298;28;95844;-75
2022/12/19 01:54:20;;;;;;;34.60;19.35;;;3.10;99.90;;;;;;4976456;28;96895;-75
2022/12/19 01:56:52;;;;;;;31.52;18.88;;;3.20;99.90;;;;;;4976870;28;92389;-74
2022/12/19 01:59:24;;;;;;;30.38;17.05;;;3.20;99.90;;;;;;4976302;28;92591;-75
2022/12/19 02:01:59;;;;;;;33.53;19.90;;;3.20;99.90;;;;;;4974608;28;99074;-74
2022/12/19 02:04:27;;;;;;;36.63;19.63;;;3.20;99.90;;;;;;4977655;28;95552;-74
2022/12/19 02:06:57;;;;;;;25.63;15.23;;;3.20;99.90;;;;;;4992644;28;92445;-75
2022/12/19 02:09:24;;;;;;;28.55;15.07;;;3.20;99.90;;;;;;4976124;28;92424;-75
2022/12/19 02:11:52;;;;;;;30.25;17.88;;;3.20;99.90;;;;;;4959511;28;95919;-75
2022/12/19 02:14:20;;;;;;;22.08;13.90;;;3.20;99.90;;;;;;4975885;28;95858;-75
2022/12/19 02:17:16;;;;;;;29.77;16.33;;;3.20;99.90;;;;;;4976085;28;92429;-75
2022/12/19 02:20:05;;;;;;;33.10;19.73;;;3.20;99.90;;;;;;4960252;28;91766;-74
2022/12/19 02:22:47;;;;;;;34.03;18.48;;;3.30;99.90;;;;;;4975865;28;95263;-75
2022/12/19 02:25:56;;;;;;;29.85;18.65;;;3.20;99.90;;;;;;4975775;28;95840;-75
2022/12/19 02:28:49;;;;;;;32.83;18.63;;;3.30;99.90;;;;;;4958523;28;94892;-75
2022/12/19 02:31:30;;;;;;;27.92;16.90;;;3.30;99.90;;;;;;4958880;28;92581;-75
2022/12/19 02:34:24;;;;;;;23.90;14.85;;;3.30;99.90;;;;;;4959628;28;95616;-74
2022/12/19 02:37:12;;;;;;;29.10;18.13;;;3.30;99.90;;;;;;4975484;28;96160;-75
2022/12/19 02:39:48;;;;;;;30.98;17.95;;;3.30;99.90;;;;;;4975775;28;93049;-75
2022/12/19 02:42:24;;;;;;;28.75;16.70;;;3.30;99.90;;;;;;4977024;28;93063;-75
2022/12/19 02:44:53;;;;;;;39.03;20.33;;;3.30;99.90;;;;;;4991979;28;95416;-74
2022/12/19 02:47:21;;;;;;;34.92;18.83;;;3.30;99.90;;;;;;4992359;28;95916;-75
2022/12/19 02:49:48;;;;;;;38.78;20.10;;;3.30;99.90;;;;;;4992374;28;92585;-75
2022/12/19 02:52:19;;;;;;;33.50;17.95;;;3.20;99.90;;;;;;4975477;28;92603;-75
2022/12/19 02:54:55;;;;;;;40.22;22.95;;;3.30;99.90;;;;;;4973980;28;98006;-75
2022/12/19 02:57:32;;;;;;;43.63;22.35;;;3.20;99.90;;;;;;4959347;28;97512;-75
2022/12/19 03:00:07;;;;;;;36.25;19.05;;;3.30;99.90;;;;;;4975109;28;92393;-75
2022/12/19 03:02:53;;;;;;;40.65;18.95;;;3.20;99.90;;;;;;4975439;28;92563;-75
2022/12/19 03:05:34;;;;;;;51.33;24.77;;;3.20;99.90;;;;;;4975200;28;95360;-75
2022/12/19 03:08:17;;;;;;;40.08;21.40;;;3.20;99.90;;;;;;4958674;28;95904;-75
2022/12/19 03:11:05;;;;;;;41.83;22.27;;;3.10;99.90;;;;;;4975320;28;92663;-75
2022/12/19 03:13:38;;;;;;;50.72;23.52;;;3.10;99.90;;;;;;4959456;28;91695;-75
2022/12/19 03:16:09;;;;;;;43.45;21.55;;;3.10;99.90;;;;;;4974844;28;95983;-75
2022/12/19 03:18:37;;;;;;;36.25;20.48;;;3.10;99.90;;;;;;4975031;28;95908;-75
2022/12/19 03:21:22;;;;;;;43.50;19.80;;;3.10;99.90;;;;;;4973937;28;94932;-75
2022/12/19 03:23:51;;;;;;;40.03;17.73;;;3.10;99.90;;;;;;4958734;28;92525;-75
2022/12/19 03:26:21;;;;;;;52.10;24.02;;;3.10;99.90;;;;;;4973945;28;93620;-75
2022/12/19 03:29:08;;;;;;;37.25;18.85;;;3.10;99.90;;;;;;4958466;28;93167;-75
2022/12/19 03:31:36;;;;;;;46.92;23.95;;;3.20;99.90;;;;;;4991191;28;92495;-75
2022/12/19 03:34:17;;;;;;;34.83;18.52;;;3.10;99.90;;;;;;4975056;28;92452;-75
2022/12/19 03:36:50;;;;;;;42.58;22.13;;;3.10;99.90;;;;;;4991584;28;93319;-75
2022/12/19 03:39:19;;;;;;;38.30;19.42;;;3.10;99.90;;;;;;4976267;28;93276;-76
2022/12/19 03:44:37;;;;;;;36.63;18.38;;;3.10;99.90;;;;;;4975379;28;92450;-75
2022/12/19 03:47:14;;;;;;;38.47;21.83;;;3.20;99.90;;;;;;4989779;28;95747;-75
2022/12/19 03:49:41;;;;;;;42.00;20.00;;;3.10;99.90;;;;;;4975890;28;95926;-75
2022/12/19 03:52:35;;;;;;;40.08;19.80;;;3.10;99.90;;;;;;4975594;28;92497;-75
2022/12/19 03:55:15;;;;;;;43.20;20.13;;;3.20;99.90;;;;;;4976105;28;92433;-75
2022/12/19 03:57:49;;;;;;;42.90;21.17;;;3.20;99.90;;;;;;4974457;28;94318;-75
2022/12/19 04:00:17;;;;;;;43.13;21.55;;;3.20;99.90;;;;;;4974249;28;92968;-76
2022/12/19 04:02:50;;;;;;;50.28;23.85;;;3.20;99.90;;;;;;4975923;28;92498;-75
2022/12/19 04:05:22;;;;;;;40.92;21.38;;;3.30;99.90;;;;;;4974918;28;91866;-75
2022/12/19 04:07:53;;;;;;;42.25;21.67;;;3.20;99.90;;;;;;4975442;28;93165;-75
2022/12/19 04:10:24;;;;;;;39.30;21.92;;;3.30;99.90;;;;;;4974061;28;93245;-76
2022/12/19 04:13:01;;;;;;;35.83;21.02;;;3.30;99.90;;;;;;4989650;28;94903;-75
2022/12/19 04:15:49;;;;;;;45.22;19.50;;;3.30;99.90;;;;;;4974504;28;92582;-75
2022/12/19 04:18:18;;;;;;;55.22;24.33;;;3.40;99.90;;;;;;4973902;28;95784;-75
2022/12/19 04:20:57;;;;;;;42.20;19.63;;;3.40;99.90;;;;;;4975485;28;93043;-75
2022/12/19 04:23:39;;;;;;;32.78;17.45;;;3.50;99.90;;;;;;4975481;28;92453;-75
2022/12/19 04:26:06;;;;;;;40.90;20.95;;;3.50;99.90;;;;;;4990807;28;93135;-75
2022/12/19 04:28:42;;;;;;;47.65;23.02;;;3.50;99.90;;;;;;4957719;28;95509;-75
2022/12/19 04:31:13;;;;;;;47.25;24.13;;;3.60;99.90;;;;;;4975762;28;93122;-75
2022/12/19 04:33:40;;;;;;;31.17;18.27;;;3.60;99.90;;;;;;4975738;28;92747;-75
2022/12/19 04:36:09;;;;;;;46.95;22.55;;;3.60;99.90;;;;;;4990529;28;96748;-75
2022/12/19 04:38:36;;;;;;;37.70;17.80;;;3.70;99.90;;;;;;4971580;28;96650;-75
2022/12/19 04:41:03;;;;;;;43.63;23.02;;;3.70;99.90;;;;;;4941411;28;98553;-75
2022/12/19 04:43:30;;;;;;;40.45;20.88;;;3.70;99.90;;;;;;4975113;28;92497;-75
2022/12/19 04:45:57;;;;;;;43.78;22.20;;;3.80;99.90;;;;;;4973669;28;92533;-75
2022/12/19 04:48:24;;;;;;;45.03;22.52;;;3.80;99.90;;;;;;4941043;28;95786;-75
2022/12/19 04:50:51;;;;;;;46.72;23.80;;;3.80;99.90;;;;;;4975176;28;93191;-75
2022/12/19 04:53:18;;;;;;;42.83;22.92;;;3.90;99.90;;;;;;4990216;28;92520;-76
2022/12/19 04:55:47;;;;;;;42.97;21.40;;;3.90;99.90;;;;;;4974154;28;93241;-76
2022/12/19 04:58:14;;;;;;;37.00;20.05;;;3.90;99.90;;;;;;4974777;28;93689;-76
2022/12/19 05:00:46;;;;;;;39.10;20.45;;;4.00;99.90;;;;;;4973618;28;95923;-76
2022/12/19 05:03:13;;;;;;;42.65;21.90;;;4.00;99.90;;;;;;4972718;28;94883;-76
2022/12/19 05:05:40;;;;;;;35.22;18.42;;;4.10;99.90;;;;;;4975187;28;92934;-75
2022/12/19 05:08:07;;;;;;;44.05;22.27;;;4.10;99.90;;;;;;4974844;28;93246;-76
2022/12/19 05:10:36;;;;;;;40.08;21.38;;;4.10;99.90;;;;;;4989717;28;95937;-75
2022/12/19 05:13:02;;;;;;;47.33;24.67;;;4.20;99.90;;;;;;4940521;28;99716;-74
2022/12/19 05:15:29;;;;;;;45.53;24.77;;;4.20;99.90;;;;;;4973572;28;92501;-74
2022/12/19 05:17:56;;;;;;;38.65;20.08;;;4.20;99.90;;;;;;4973197;28;96894;-74
2022/12/19 05:20:23;;;;;;;43.28;22.25;;;4.20;99.90;;;;;;4941257;28;92321;-74
2022/12/19 05:22:50;;;;;;;42.90;22.77;;;4.30;99.90;;;;;;4973828;28;92904;-74
2022/12/19 05:25:17;;;;;;;40.92;21.95;;;4.30;99.90;;;;;;4989960;28;92576;-74
2022/12/19 05:27:44;;;;;;;44.60;22.15;;;4.30;99.90;;;;;;4971796;28;98573;-74
2022/12/19 05:30:11;;;;;;;44.03;22.42;;;4.30;99.90;;;;;;4973891;28;103523;-74
2022/12/19 05:32:38;;;;;;;41.83;21.33;;;4.30;99.90;;;;;;4973630;28;92873;-74
2022/12/19 05:35:06;;;;;;;46.97;23.33;;;4.30;99.90;;;;;;4974830;28;92488;-74
2022/12/19 05:37:33;;;;;;;43.88;21.98;;;4.40;99.90;;;;;;4974383;28;93394;-74
2022/12/19 05:40:00;;;;;;;47.60;24.23;;;4.40;99.90;;;;;;4974625;28;92991;-74
2022/12/19 05:42:26;;;;;;;48.33;23.60;;;4.40;99.90;;;;;;4973430;28;93097;-74
2022/12/19 05:44:54;;;;;;;54.50;25.33;;;4.40;99.90;;;;;;4990299;28;91770;-74
2022/12/19 05:47:20;;;;;;;46.33;23.48;;;4.40;99.90;;;;;;4972841;28;93314;-76
2022/12/19 05:49:47;;;;;;;45.85;23.77;;;4.40;99.90;;;;;;4990989;28;93123;-75
2022/12/19 05:52:14;;;;;;;48.90;24.63;;;4.40;99.90;;;;;;4976832;28;95282;-75
2022/12/19 05:54:42;;;;;;;46.67;22.17;;;4.40;99.90;;;;;;4976384;28;92443;-74
2022/12/19 05:57:09;;;;;;;38.45;21.20;;;4.50;99.90;;;;;;4976555;28;93346;-74
2022/12/19 05:59:35;;;;;;;39.90;23.35;;;4.50;99.90;;;;;;4992833;28;93073;-75
2022/12/19 06:02:03;;;;;;;40.00;21.05;;;4.50;99.90;;;;;;4976678;28;92977;-75
2022/12/19 06:04:30;;;;;;;43.45;24.10;;;4.50;99.90;;;;;;4960152;28;92535;-74
2022/12/19 06:06:57;;;;;;;41.17;23.15;;;4.60;99.90;;;;;;4976109;28;96039;-74
2022/12/19 06:09:24;;;;;;;43.35;22.33;;;4.60;99.90;;;;;;4977400;28;93284;-74
2022/12/19 06:11:51;;;;;;;40.78;23.27;;;4.60;99.90;;;;;;4992836;28;92589;-74
2022/12/19 06:14:19;;;;;;;44.92;24.42;;;4.70;99.90;;;;;;4976340;28;92643;-74
2022/12/19 06:16:46;;;;;;;44.85;23.52;;;4.70;99.90;;;;;;4926097;28;98363;-75
2022/12/19 06:19:13;;;;;;;41.13;21.85;;;4.70;99.90;;;;;;4992491;28;96191;-75
2022/12/19 06:21:40;;;;;;;42.10;22.35;;;4.80;99.90;;;;;;4959494;28;92531;-75
2022/12/19 06:24:14;;;;;;;44.75;23.60;;;4.80;99.90;;;;;;4961207;28;92445;-75
2022/12/19 06:26:41;;;;;;;46.00;22.42;;;4.90;99.90;;;;;;4977033;28;93372;-75
2022/12/19 06:29:08;;;;;;;34.38;20.48;;;4.90;99.90;;;;;;4977089;28;93066;-75
2022/12/19 06:31:35;;;;;;;37.15;20.33;;;5.00;99.90;;;;;;4991698;28;92486;-75
2022/12/19 06:34:02;;;;;;;31.13;18.20;;;5.00;99.90;;;;;;4976395;28;91758;-75
2022/12/19 06:36:30;;;;;;;39.35;21.30;;;5.00;99.90;;;;;;4975458;28;93330;-75
2022/12/19 06:38:57;;;;;;;39.00;21.33;;;5.10;99.90;;;;;;4975824;28;93260;-75
2022/12/19 06:44:14;;;;;;;36.75;20.02;;;5.20;99.90;;;;;;4977310;28;92834;-75
2022/12/19 06:46:41;;;;;;;38.28;20.63;;;5.20;99.90;;;;;;4991977;28;95100;-75
2022/12/19 06:49:09;;;;;;;35.75;19.63;;;5.20;99.90;;;;;;4976468;28;103386;-75
2022/12/19 06:51:37;;;;;;;35.28;19.55;;;5.30;99.90;;;;;;4976665;28;92451;-75
2022/12/19 06:54:04;;;;;;;33.38;19.65;;;5.30;99.90;;;;;;4976972;28;92956;-75
2022/12/19 06:56:36;;;;;;;39.45;20.25;;;5.40;99.90;;;;;;4976441;28;93322;-75
2022/12/19 06:59:03;;;;;;;25.85;15.63;;;5.50;99.90;;;;;;4992270;28;92961;-75
2022/12/19 07:01:55;;;;;;;31.90;18.25;;;5.50;99.90;;;;;;4974227;28;92480;-75
2022/12/19 07:04:33;;;;;;;32.85;20.65;;;5.50;99.90;;;;;;4975474;28;92446;-75
2022/12/19 07:07:03;;;;;;;34.55;19.50;;;5.60;99.90;;;;;;4974257;28;95929;-75
2022/12/19 07:09:32;;;;;;;32.92;19.23;;;5.60;99.90;;;;;;4976175;28;94695;-75
2022/12/19 07:11:59;;;;;;;23.58;15.77;;;5.60;99.90;;;;;;4976357;28;92421;-75
2022/12/19 07:14:26;;;;;;;31.90;18.45;;;5.70;99.90;;;;;;4958996;28;92464;-75
2022/12/19 07:16:56;;;;;;;25.25;16.33;;;5.70;99.90;;;;;;4975776;28;97617;-75
2022/12/19 07:19:25;;;;;;;24.40;14.75;;;5.80;99.90;;;;;;4991818;28;92904;-75
2022/12/19 07:21:54;;;;;;;22.88;15.07;;;5.80;99.90;;;;;;4974970;28;93020;-75
2022/12/19 07:24:21;;;;;;;24.15;15.57;;;5.90;99.90;;;;;;4975388;28;91745;-75
2022/12/19 07:26:48;;;;;;;22.80;15.65;;;5.90;99.90;;;;;;4974691;28;93383;-75
2022/12/19 07:29:15;;;;;;;26.00;16.50;;;5.90;99.90;;;;;;4991288;28;94527;-75
2022/12/19 07:31:42;;;;;;;22.40;16.10;;;6.00;99.90;;;;;;4956823;28;94950;-75
2022/12/19 07:34:09;;;;;;;23.90;16.80;;;6.10;99.90;;;;;;4958670;28;93201;-75
2022/12/19 07:36:36;;;;;;;26.80;16.98;;;6.10;99.90;;;;;;4975776;28;93266;-74
2022/12/19 07:39:03;;;;;;;24.58;15.70;;;6.20;99.90;;;;;;4975889;28;93065;-74
2022/12/19 07:41:30;;;;;;;27.13;18.08;;;6.20;99.90;;;;;;4958842;28;92689;-74
2022/12/19 07:43:57;;;;;;;27.33;17.63;;;6.20;99.90;;;;;;4974439;28;92541;-74
2022/12/19 07:46:28;;;;;;;27.90;17.23;;;6.30;99.90;;;;;;4975965;28;93111;-75
2022/12/19 07:48:56;;;;;;;21.80;14.88;;;6.30;99.90;;;;;;4975917;28;93097;-74
2022/12/19 07:51:23;;;;;;;23.05;15.88;;;6.40;99.90;;;;;;4975854;28;92465;-74
2022/12/19 07:53:49;;;;;;;26.27;16.70;;;6.40;99.90;;;;;;4974463;28;92490;-74
2022/12/19 07:56:17;;;;;;;23.88;16.15;;;6.40;99.90;;;;;;4957325;28;95618;-74
2022/12/19 07:58:44;;;;;;;22.88;16.05;;;6.40;99.90;;;;;;4957807;28;100127;-75
2022/12/19 08:01:13;;;;;;;25.77;16.17;;;6.40;99.90;;;;;;4976004;28;92365;-74
2022/12/19 08:03:40;;;;;;;22.17;14.88;;;6.50;99.90;;;;;;4974181;28;92783;-74
2022/12/19 08:06:07;;;;;;;23.92;15.45;;;6.50;99.90;;;;;;4975365;28;93353;-74
2022/12/19 08:08:36;;;;;;;21.75;15.02;;;6.50;99.90;;;;;;4990805;28;93016;-74
2022/12/19 08:11:25;;;;;;;19.17;14.13;;;6.50;99.90;;;;;;4974389;28;93191;-74
2022/12/19 08:13:53;;;;;;;21.23;14.05;;;6.60;99.90;;;;;;4975909;28;91708;-71
2022/12/19 08:16:21;;;;;;;22.77;15.52;;;6.60;99.90;;;;;;4974376;28;95900;-74
2022/12/19 08:18:48;;;;;;;20.23;12.98;;;6.60;99.90;;;;;;4975142;28;92970;-75
2022/12/19 08:21:15;;;;;;;22.17;15.25;;;6.60;99.90;;;;;;4972988;28;94951;-74
2022/12/19 08:23:42;;;;;;;25.33;17.63;;;6.70;99.90;;;;;;4975443;28;93121;-75
2022/12/19 08:26:23;;;;;;;21.17;13.82;;;6.70;99.90;;;;;;4975329;28;93252;-73
2022/12/19 08:28:55;;;;;;;21.23;13.63;;;6.80;99.90;;;;;;4973958;28;93068;-73
2022/12/19 08:31:25;;;;;;;20.10;13.88;;;6.70;99.90;;;;;;4958347;28;92474;-74
2022/12/19 08:33:53;;;;;;;18.60;13.23;;;6.70;99.90;;;;;;4975164;28;92524;-74
2022/12/19 08:36:21;;;;;;;22.58;14.38;;;6.80;99.90;;;;;;4973814;28;95864;-73
2022/12/19 08:38:48;;;;;;;19.52;13.82;;;6.80;99.90;;;;;;4975304;28;93449;-74
2022/12/19 08:41:16;;;;;;;19.00;14.38;;;6.80;99.90;;;;;;4975463;28;92450;-74
2022/12/19 08:43:51;;;;;;;18.35;12.55;;;6.80;99.90;;;;;;4975237;28;93294;-74
2022/12/19 08:46:19;;;;;;;18.35;13.02;;;6.90;99.90;;;;;;4989099;28;99337;-73
2022/12/19 08:48:46;;;;;;;20.45;13.80;;;6.90;99.90;;;;;;4974712;28;95823;-74
2022/12/19 08:51:15;;;;;;;20.08;14.13;;;6.90;99.90;;;;;;4974049;28;92492;-74
2022/12/19 08:53:45;;;;;;;17.63;12.98;;;6.90;99.90;;;;;;4990519;28;92577;-74
2022/12/19 08:56:12;;;;;;;16.80;11.80;;;7.00;99.90;;;;;;4974748;28;93240;-74
2022/12/19 08:58:39;;;;;;;18.60;12.40;;;7.00;99.90;;;;;;4974996;28;93558;-74
2022/12/19 09:01:10;;;;;;;17.08;12.70;;;7.00;99.90;;;;;;4973751;28;92482;-74
2022/12/19 09:03:37;;;;;;;13.57;10.95;;;7.00;99.90;;;;;;4990635;28;91782;-74
2022/12/19 09:06:17;;;;;;;18.52;12.90;;;7.00;99.90;;;;;;4973969;28;93166;-73
2022/12/19 09:08:45;;;;;;;15.93;11.82;;;7.10;99.90;;;;;;4974852;28;93457;-74
2022/12/19 09:11:18;;;;;;;16.77;12.32;;;7.10;99.90;;;;;;4972293;28;94857;-74
2022/12/19 09:13:47;;;;;;;15.98;12.55;;;7.20;99.90;;;;;;4975363;28;92330;-74
2022/12/19 09:16:15;;;;;;;15.93;11.00;;;7.20;99.90;;;;;;4973559;28;96446;-74
2022/12/19 09:18:48;;;;;;;13.73;11.05;;;7.30;99.90;;;;;;4974830;28;92416;-74
2022/12/19 09:21:17;;;;;;;18.15;12.32;;;7.30;99.90;;;;;;4973462;28;93109;-74
2022/12/19 09:23:54;;;;;;;16.80;12.52;;;7.30;99.90;;;;;;4974895;28;92455;-74
2022/12/19 09:26:26;;;;;;;18.80;12.43;;;7.30;99.90;;;;;;4993344;28;93249;-74
2022/12/19 09:28:53;;;;;;;16.73;13.15;;;7.40;99.90;;;;;;4976942;28;92060;-74
2022/12/19 09:31:24;;;;;;;16.73;12.35;;;7.40;99.90;;;;;;4993357;28;92955;-74
2022/12/19 09:33:52;;;;;;;17.92;13.45;;;7.50;99.90;;;;;;4993297;28;92516;-74
2022/12/19 09:36:22;;;;;;;18.60;14.68;;;7.50;99.90;;;;;;4976737;28;95652;-74
2022/12/19 09:38:52;;;;;;;17.23;13.02;;;7.50;99.90;;;;;;4976525;28;97961;-74
2022/12/19 09:41:28;;;;;;;18.05;13.57;;;7.50;99.90;;;;;;4976705;28;92464;-74
2022/12/19 09:44:22;;;;;;;21.83;15.13;;;7.60;99.90;;;;;;4978116;28;92335;-74
2022/12/19 09:46:54;;;;;;;19.45;14.30;;;7.70;99.90;;;;;;4976567;28;94285;-74
2022/12/19 09:49:24;;;;;;;18.20;14.30;;;7.70;99.90;;;;;;4978017;28;93129;-74
2022/12/19 09:52:01;;;;;;;20.48;13.68;;;7.70;99.90;;;;;;4978002;28;92379;-74
2022/12/19 09:54:46;;;;;;;18.73;14.25;;;7.80;99.90;;;;;;4978618;28;91620;-74
2022/12/19 09:57:22;;;;;;;19.27;13.35;;;7.90;99.90;;;;;;4976803;28;93341;-74
2022/12/19 09:59:55;;;;;;;18.98;14.43;;;7.90;99.90;;;;;;4977933;28;93258;-74
2022/12/19 10:02:31;;;;;;;21.58;14.77;;;7.90;99.90;;;;;;4992070;28;95145;-74
2022/12/19 10:05:22;;;;;;;21.20;16.20;;;8.00;99.90;;;;;;4977586;28;92355;-73
2022/12/19 10:08:37;;;;;;;16.20;12.52;;;8.10;99.90;;;;;;4977637;28;93227;-73
2022/12/19 10:11:14;;;;;;;20.25;14.13;;;8.10;99.90;;;;;;4976804;28;93288;-73
2022/12/19 10:14:22;;;;;;;15.25;12.32;;;8.10;99.90;;;;;;4977666;28;92378;-73
2022/12/19 10:17:13;;;;;;;18.17;14.50;;;8.20;99.90;;;;;;4977704;28;92433;-73
2022/12/19 10:20:08;;;;;;;17.83;13.00;;;8.20;99.90;;;;;;4977366;28;93159;-73
2022/12/19 10:22:50;;;;;;;15.35;12.75;;;8.20;99.90;;;;;;4976234;28;95162;-73
2022/12/19 10:25:44;;;;;;;16.15;12.40;;;8.20;99.90;;;;;;4992560;28;92469;-73
2022/12/19 10:28:18;;;;;;;16.17;11.75;;;8.30;99.90;;;;;;4977143;28;93084;-73
2022/12/19 10:30:57;;;;;;;18.08;13.20;;;8.30;99.90;;;;;;4974536;28;95763;-73
2022/12/19 10:33:47;;;;;;;14.80;12.27;;;8.40;99.90;;;;;;4992230;28;98017;-74
2022/12/19 10:36:14;;;;;;;14.32;11.75;;;8.40;99.90;;;;;;4975794;28;92425;-73
2022/12/19 10:38:58;;;;;;;18.05;13.40;;;8.40;99.90;;;;;;4959556;28;92481;-73
2022/12/19 10:41:29;;;;;;;16.80;11.43;;;8.50;99.90;;;;;;4975702;28;93753;-73
2022/12/19 10:44:09;;;;;;;15.63;12.70;;;8.60;99.90;;;;;;4977215;28;93067;-73
2022/12/19 10:46:42;;;;;;;14.68;11.90;;;8.70;99.90;;;;;;4975986;28;92497;-73
2022/12/19 10:49:15;;;;;;;14.60;10.60;;;8.60;99.90;;;;;;4975893;28;91742;-73
2022/12/19 10:51:55;;;;;;;13.98;11.07;;;8.70;99.90;;;;;;4977021;28;93394;-73
2022/12/19 10:54:22;;;;;;;16.27;11.68;;;8.70;99.90;;;;;;4975403;28;92532;-73
2022/12/19 10:57:22;;;;;;;16.52;12.52;;;8.70;99.90;;;;;;4974393;28;95053;-73
2022/12/19 11:00:16;;;;;;;14.30;10.85;;;8.80;99.90;;;;;;4992148;28;92472;-73
2022/12/19 11:02:46;;;;;;;16.00;12.45;;;8.80;99.90;;;;;;4976732;28;93168;-73
2022/12/19 11:05:29;;;;;;;13.85;10.35;;;8.80;99.90;;;;;;4974696;28;95693;-73
2022/12/19 11:08:07;;;;;;;13.07;10.98;;;8.80;99.90;;;;;;4976886;28;92466;-73
2022/12/19 11:10:59;;;;;;;14.10;11.00;;;8.80;99.90;;;;;;4959121;28;93148;-73
2022/12/19 11:13:46;;;;;;;12.13;10.20;;;8.80;99.90;;;;;;4975053;28;94250;-73
2022/12/19 11:16:35;;;;;;;14.93;10.75;;;8.90;99.90;;;;;;4975499;28;95567;-74
2022/12/19 11:19:31;;;;;;;16.08;11.00;;;8.90;99.90;;;;;;4975578;28;92959;-73
2022/12/19 11:22:28;;;;;;;13.65;10.32;;;8.90;99.90;;;;;;4975104;28;92960;-74
2022/12/19 11:25:19;;;;;;;13.07;10.77;;;9.00;99.90;;;;;;4959954;28;98142;-73
2022/12/19 11:28:15;;;;;;;12.10;8.70;;;8.90;99.90;;;;;;4974843;28;98096;-74
2022/12/19 11:31:21;;;;;;;17.52;11.75;;;8.90;99.90;;;;;;4991514;28;92433;-73
2022/12/19 11:34:14;;;;;;;12.00;10.25;;;8.90;99.90;;;;;;4974969;28;93118;-73
2022/12/19 11:37:12;;;;;;;14.93;11.15;;;8.90;99.90;;;;;;4974896;28;93324;-73
2022/12/19 11:40:18;;;;;;;11.77;10.27;;;8.90;99.90;;;;;;4991264;28;95746;-73
2022/12/19 11:43:04;;;;;;;15.00;10.75;;;8.90;99.90;;;;;;4957114;28;93086;-73
2022/12/19 11:46:03;;;;;;;14.02;10.45;;;9.00;99.90;;;;;;4974066;28;91910;-73
2022/12/19 11:48:46;;;;;;;16.70;11.48;;;8.90;99.90;;;;;;4975026;28;93200;-73
2022/12/19 11:51:27;;;;;;;14.15;10.90;;;9.00;99.90;;;;;;4974581;28;93115;-74
2022/12/19 11:54:00;;;;;;;14.60;11.13;;;9.00;99.90;;;;;;4973447;28;94833;-73
2022/12/19 11:56:28;;;;;;;18.03;12.07;;;9.00;99.90;;;;;;4975850;28;92821;-73
2022/12/19 11:58:59;;;;;;;13.15;9.93;;;9.00;99.90;;;;;;4990933;28;94194;-73
2022/12/19 12:01:51;;;;;;;10.98;9.48;;;9.00;99.90;;;;;;4976321;28;92953;-73
2022/12/19 12:04:24;;;;;;;15.80;11.20;;;9.10;99.90;;;;;;4976220;28;92436;-73
2022/12/19 12:06:52;;;;;;;16.17;10.57;;;9.00;99.90;;;;;;4975890;28;92462;-73
2022/12/19 12:09:22;;;;;;;13.60;11.75;;;9.10;99.90;;;;;;4974017;28;94728;-73
2022/12/19 12:12:41;;;;;;;13.30;10.52;;;9.10;99.90;;;;;;4976151;28;92849;-73
2022/12/19 12:15:40;;;;;;;12.43;10.45;;;9.20;99.90;;;;;;4975860;28;92432;-73
2022/12/19 12:18:46;;;;;;;14.38;11.73;;;9.10;99.90;;;;;;4975702;28;92353;-73
2022/12/19 12:21:40;;;;;;;13.23;10.07;;;9.10;99.90;;;;;;4972785;28;95689;-73
2022/12/19 12:24:50;;;;;;;13.65;11.38;;;9.10;99.90;;;;;;4973816;28;98141;-73
2022/12/19 12:27:43;;;;;;;12.10;8.75;;;9.10;99.90;;;;;;4973762;28;92660;-73
2022/12/19 12:30:43;;;;;;;12.57;9.05;;;9.20;99.90;;;;;;4975339;28;92500;-73
2022/12/19 12:33:58;;;;;;;12.88;10.10;;;9.20;99.90;;;;;;4976040;28;93105;-73
2022/12/19 12:37:09;;;;;;;12.38;10.20;;;9.20;99.90;;;;;;4975457;28;92851;-74
2022/12/19 12:40:33;;;;;;;13.02;10.68;;;9.20;99.90;;;;;;4960196;28;92565;-74
2022/12/19 12:43:38;;;;;;;14.02;10.77;;;9.30;99.90;;;;;;4975809;28;91750;-73
2022/12/19 12:46:12;;;;;;;13.77;9.82;;;9.30;99.90;;;;;;4975304;28;93173;-73
2022/12/19 12:49:05;;;;;;;12.57;11.25;;;9.30;99.90;;;;;;4974103;28;95566;-73
2022/12/19 12:51:33;;;;;;;11.73;10.52;;;9.30;99.90;;;;;;4972390;28;94971;-73
2022/12/19 12:54:06;;;;;;;14.75;10.07;;;9.30;99.90;;;;;;4973746;28;93519;-73
2022/12/19 12:56:35;;;;;;;13.40;9.43;;;9.40;99.90;;;;;;4990197;28;93690;-73
2022/12/19 12:59:21;;;;;;;10.38;9.27;;;9.40;99.90;;;;;;4973183;28;96152;-74
2022/12/19 13:01:53;;;;;;;12.40;9.48;;;9.40;99.90;;;;;;4990789;28;92431;-74
2022/12/19 13:04:39;;;;;;;10.90;9.40;;;9.40;99.90;;;;;;4976054;28;92844;-73
2022/12/19 13:07:41;;;;;;;11.63;10.43;;;9.50;99.90;;;;;;4975568;28;93575;-73
2022/12/19 13:10:24;;;;;;;14.32;10.10;;;9.50;99.90;;;;;;4975338;28;93037;-73
2022/12/19 13:13:07;;;;;;;11.23;9.82;;;9.50;99.90;;;;;;4974900;28;92439;-73
2022/12/19 13:15:42;;;;;;;13.93;10.32;;;9.50;99.90;;;;;;4974013;28;92559;-74
2022/12/19 13:18:30;;;;;;;11.35;9.18;;;9.40;99.90;;;;;;4972437;28;95575;-74
2022/12/19 13:20:58;;;;;;;10.45;9.05;;;9.50;99.90;;;;;;4975422;28;95309;-73
2022/12/19 13:23:25;;;;;;;10.90;9.32;;;9.40;99.90;;;;;;4975186;28;92536;-74
2022/12/19 13:25:53;;;;;;;12.25;9.73;;;9.50;99.90;;;;;;4956583;28;92559;-74